Mid Ohio Valley Regional Airport
KPKB : now visible

Airfield :











YOU CAN JOIN US ON...

 
LOGIN :

Register | Disclaimer

   EN    FR    IT 

 









Legend :    VFR   Marginal VFR   IFR   Intensive IFR   Very Intensive IFR
Visi :
Ceiling :
>= 8 km
>= 3000ft
5 to 8 km
1000 to 3000 ft
1500m to 5 km
500 to 1000 ft
800 to 1500m
200 to 500 ft
< 800m
< 200 ft
Symbols :   Thunderstorms  Fog  Heavy snow  Heavy precipitations  Wind > 20 kt






- Airport Elevation : 858 ft
- IATA code : PKB


KPKB - Mid Ohio Valley Regional

CURRENT METAR :
  • 191853Z 30012G18KT 10SM OVC030 M05/M12 A3015 RMK AO2 SLP217 T10501117 $

EXPIRED METARs :
  • 191818Z 29011KT 10SM OVC030 M05/M12 A3014 RMK AO2 T10501117 $
  • 191753Z 29008KT 10SM OVC026 M04/M11 A3013 RMK AO2 SLP210 60000 T10441106 11033 21044 51011 $
  • 191653Z 27010G18KT 10SM BKN023 OVC029 M04/M09 A3012 RMK AO2 SNE49 SLP205 P0000 T10391094 $

TAF KPKB
Valid from the 19 at 18:00 until the 20 at 18:00 UTC


191747Z 1918/2018 28012G19KT P6SM OVC028
FM200100 30010KT P6SM OVC025
FM201400 33005KT P6SM BKN030



MET'MAP, your aeronautical weather chart ! - Copyright ORBIFLY December 2007 - Disclaimer

ORBIFLY MET'MAP TEAM :

Programming & Development : Alexandra Zaïnal
Concept & original design : Baudouin d'Aumeries
Assistance for programming : Marc-Olivier Méhu
Technical & hardware support : Manuel Goepfert

Contact : metmap@orbifly.com




SOURCES & CREDITS :

   NOAA       Earth
Advisory